Time;durP1;ratioP1;P1;durP2;ratioP2;P2;SDS_P1;SDS_P2;PMS_P1;PMS_P2;Temp;Humidity;BMP_temperature;BMP_pressure;BME280_temperature;BME280_humidity;BME280_pressure;Samples;Min_cycle;Max_cycle;Signal;HPM_P1;HPM_P2
2023/11/07 00:01:12;;;;;;;55.87;2.50;;;;;;;;;;5051135;28;20474;-71
2023/11/07 00:03:39;;;;;;;55.97;2.50;;;;;;;;;;5051542;28;20455;-71
2023/11/07 00:06:08;;;;;;;55.97;2.37;;;;;;;;;;5051301;28;20498;-72
2023/11/07 00:08:35;;;;;;;56.00;2.53;;;;;;;;;;5051200;28;20527;-71
2023/11/07 00:11:03;;;;;;;56.17;2.60;;;;;;;;;;5050923;28;20471;-71
2023/11/07 00:13:30;;;;;;;56.03;2.70;;;;;;;;;;5051020;28;20485;-72
2023/11/07 00:15:57;;;;;;;56.10;2.43;;;;;;;;;;5050900;28;20455;-71
2023/11/07 00:18:25;;;;;;;56.20;2.80;;;;;;;;;;5051038;28;20971;-72
2023/11/07 00:20:52;;;;;;;55.90;2.30;;;;;;;;;;5051300;28;20473;-71
2023/11/07 00:23:20;;;;;;;56.00;2.70;;;;;;;;;;5050092;28;20452;-71
2023/11/07 00:25:47;;;;;;;56.10;2.80;;;;;;;;;;5050862;28;20903;-71
2023/11/07 00:28:14;;;;;;;56.17;2.50;;;;;;;;;;5051008;28;20451;-71
2023/11/07 00:30:41;;;;;;;56.07;2.80;;;;;;;;;;5051003;28;20473;-71
2023/11/07 00:33:08;;;;;;;56.07;2.40;;;;;;;;;;5050802;28;20949;-72
2023/11/07 00:35:36;;;;;;;56.07;2.60;;;;;;;;;;5050713;28;20488;-71
2023/11/07 00:38:04;;;;;;;56.00;2.47;;;;;;;;;;5050763;28;20733;-72
2023/11/07 00:40:32;;;;;;;56.17;2.80;;;;;;;;;;5050661;28;20472;-73
2023/11/07 00:42:59;;;;;;;55.80;2.47;;;;;;;;;;5050807;28;20464;-71
2023/11/07 00:45:26;;;;;;;56.10;2.67;;;;;;;;;;5051022;28;20816;-72
2023/11/07 00:47:54;;;;;;;56.10;2.70;;;;;;;;;;5050670;28;20454;-72
2023/11/07 00:50:21;;;;;;;56.00;2.27;;;;;;;;;;5051001;28;20477;-72
2023/11/07 00:52:48;;;;;;;56.17;2.60;;;;;;;;;;5050650;28;20451;-71
2023/11/07 00:55:15;;;;;;;56.20;2.60;;;;;;;;;;5050615;28;20490;-72
2023/11/07 00:57:44;;;;;;;56.30;2.70;;;;;;;;;;5050935;28;20489;-72
2023/11/07 01:00:13;;;;;;;55.83;2.70;;;;;;;;;;5050689;28;20845;-71
2023/11/07 01:02:40;;;;;;;55.77;2.40;;;;;;;;;;5050469;28;20497;-71
2023/11/07 01:05:08;;;;;;;56.00;2.60;;;;;;;;;;5050496;28;20680;-71
2023/11/07 01:07:35;;;;;;;56.03;2.37;;;;;;;;;;5050406;28;20461;-73
2023/11/07 01:10:03;;;;;;;55.97;2.50;;;;;;;;;;5050325;28;20484;-71
2023/11/07 01:12:30;;;;;;;56.00;2.50;;;;;;;;;;5050596;28;20899;-71
2023/11/07 01:14:58;;;;;;;56.00;2.40;;;;;;;;;;5050231;28;20492;-71
2023/11/07 01:17:26;;;;;;;56.10;2.80;;;;;;;;;;5050413;28;20462;-71
2023/11/07 01:19:53;;;;;;;56.03;2.40;;;;;;;;;;5050402;28;20463;-71
2023/11/07 01:22:21;;;;;;;56.30;3.07;;;;;;;;;;5050304;28;20457;-71
2023/11/07 01:24:48;;;;;;;56.00;2.70;;;;;;;;;;5050292;28;20890;-72
2023/11/07 01:27:15;;;;;;;56.00;2.60;;;;;;;;;;5050471;28;20446;-71
2023/11/07 01:29:42;;;;;;;55.90;2.50;;;;;;;;;;5050264;28;20508;-72
2023/11/07 01:32:10;;;;;;;56.17;2.87;;;;;;;;;;5050281;28;20449;-71
2023/11/07 01:34:38;;;;;;;56.10;2.60;;;;;;;;;;5050974;28;20486;-70
2023/11/07 01:37:05;;;;;;;56.07;2.73;;;;;;;;;;5053672;28;20535;-71
2023/11/07 01:39:32;;;;;;;55.97;2.30;;;;;;;;;;5054025;28;20960;-72
2023/11/07 01:42:00;;;;;;;56.20;2.80;;;;;;;;;;5053964;28;20468;-71
2023/11/07 01:44:29;;;;;;;56.20;2.70;;;;;;;;;;5053869;28;20452;-71
2023/11/07 01:46:57;;;;;;;55.80;2.30;;;;;;;;;;5053637;28;20788;-71
2023/11/07 01:49:26;;;;;;;56.03;2.40;;;;;;;;;;5053739;28;20452;-71
2023/11/07 01:51:55;;;;;;;56.03;2.80;;;;;;;;;;5053863;28;20856;-71
2023/11/07 01:54:23;;;;;;;56.07;2.50;;;;;;;;;;5053916;28;20538;-72
2023/11/07 01:56:50;;;;;;;56.07;2.30;;;;;;;;;;5053652;28;20837;-71
2023/11/07 01:59:18;;;;;;;56.03;2.30;;;;;;;;;;5053596;28;20485;-71
2023/11/07 02:01:47;;;;;;;56.30;2.50;;;;;;;;;;5053305;28;20475;-71
2023/11/07 02:04:14;;;;;;;55.80;2.10;;;;;;;;;;5053905;28;20540;-71
2023/11/07 02:06:44;;;;;;;55.67;2.30;;;;;;;;;;5053402;28;20928;-71
2023/11/07 02:09:11;;;;;;;56.03;2.20;;;;;;;;;;5053715;28;20445;-72
2023/11/07 02:11:38;;;;;;;55.70;2.30;;;;;;;;;;5053127;28;21002;-72
2023/11/07 02:14:05;;;;;;;55.87;2.80;;;;;;;;;;5052860;28;20455;-72
2023/11/07 02:16:32;;;;;;;56.27;2.40;;;;;;;;;;5053402;28;20484;-71
2023/11/07 02:18:59;;;;;;;56.17;2.40;;;;;;;;;;5053385;28;20444;-71
2023/11/07 02:21:28;;;;;;;56.03;2.20;;;;;;;;;;5053151;28;20476;-71
2023/11/07 02:23:56;;;;;;;56.23;2.60;;;;;;;;;;5053212;28;20921;-71
2023/11/07 02:26:24;;;;;;;56.17;2.67;;;;;;;;;;5053007;28;20458;-71
2023/11/07 02:28:52;;;;;;;56.07;2.20;;;;;;;;;;5053064;28;20451;-72
2023/11/07 02:31:19;;;;;;;56.23;2.40;;;;;;;;;;5053016;28;20476;-72
2023/11/07 02:33:46;;;;;;;56.23;2.70;;;;;;;;;;5053125;28;20456;-71
2023/11/07 02:36:14;;;;;;;56.07;2.27;;;;;;;;;;5052688;28;20579;-72
2023/11/07 02:38:41;;;;;;;56.07;2.50;;;;;;;;;;5053179;28;20453;-71
2023/11/07 02:41:09;;;;;;;56.20;2.20;;;;;;;;;;5052692;28;20547;-72
2023/11/07 02:43:36;;;;;;;55.93;2.27;;;;;;;;;;5053072;28;20464;-72
2023/11/07 02:46:04;;;;;;;55.83;2.50;;;;;;;;;;5051868;28;20471;-72
2023/11/07 02:48:32;;;;;;;55.97;2.40;;;;;;;;;;5052743;28;20821;-72
2023/11/07 02:51:00;;;;;;;56.07;2.43;;;;;;;;;;5052407;28;20473;-73
2023/11/07 02:53:27;;;;;;;55.77;2.40;;;;;;;;;;5052429;28;20537;-72
2023/11/07 02:55:54;;;;;;;56.10;2.27;;;;;;;;;;5052430;28;20514;-72
2023/11/07 02:58:23;;;;;;;56.10;2.70;;;;;;;;;;5052757;28;20449;-72
2023/11/07 03:00:51;;;;;;;56.20;2.90;;;;;;;;;;5052496;28;20495;-72
2023/11/07 03:03:18;;;;;;;55.87;2.50;;;;;;;;;;5044355;28;20462;-71
2023/11/07 03:05:45;;;;;;;56.07;2.70;;;;;;;;;;5052277;28;20452;-71
2023/11/07 03:08:13;;;;;;;56.17;2.30;;;;;;;;;;5052294;28;20453;-72
2023/11/07 03:10:40;;;;;;;56.17;2.60;;;;;;;;;;5052457;28;20464;-72
2023/11/07 03:13:07;;;;;;;56.13;2.50;;;;;;;;;;5052182;28;20475;-71
2023/11/07 03:15:35;;;;;;;55.90;2.30;;;;;;;;;;5052078;28;20496;-71
2023/11/07 03:18:03;;;;;;;56.27;2.20;;;;;;;;;;5052103;28;20455;-72
2023/11/07 03:20:30;;;;;;;55.93;2.33;;;;;;;;;;5052046;28;20809;-71
2023/11/07 03:22:57;;;;;;;55.87;2.40;;;;;;;;;;5051666;28;20448;-71
2023/11/07 03:25:24;;;;;;;55.63;2.30;;;;;;;;;;5052316;28;20444;-71
2023/11/07 03:27:51;;;;;;;56.17;2.50;;;;;;;;;;5052072;28;20453;-72
2023/11/07 03:30:18;;;;;;;56.10;2.33;;;;;;;;;;5052101;28;20468;-71
2023/11/07 03:32:47;;;;;;;55.87;2.03;;;;;;;;;;5051816;28;20543;-71
2023/11/07 03:35:14;;;;;;;55.87;2.60;;;;;;;;;;5051600;28;20492;-71
2023/11/07 03:37:41;;;;;;;55.87;2.30;;;;;;;;;;5052108;28;20459;-72
2023/11/07 03:40:08;;;;;;;56.20;2.50;;;;;;;;;;5051521;28;20468;-71
2023/11/07 03:42:36;;;;;;;56.20;2.20;;;;;;;;;;5051885;28;20536;-72
2023/11/07 03:45:03;;;;;;;56.10;2.30;;;;;;;;;;5051661;28;20940;-71
2023/11/07 03:47:30;;;;;;;56.10;2.60;;;;;;;;;;5051477;28;20452;-71
2023/11/07 03:49:59;;;;;;;55.80;2.20;;;;;;;;;;5051627;28;20494;-72
2023/11/07 03:52:26;;;;;;;56.30;2.30;;;;;;;;;;5051696;28;20451;-72
2023/11/07 03:54:53;;;;;;;56.27;2.70;;;;;;;;;;5051528;28;20996;-72
2023/11/07 03:57:20;;;;;;;56.03;2.50;;;;;;;;;;5051268;28;20445;-71
2023/11/07 03:59:48;;;;;;;55.97;2.80;;;;;;;;;;5051408;28;20816;-72
2023/11/07 04:02:15;;;;;;;55.97;2.50;;;;;;;;;;5051184;28;20821;-72
2023/11/07 04:04:42;;;;;;;55.80;2.47;;;;;;;;;;5051730;28;20450;-72
2023/11/07 04:07:11;;;;;;;55.67;2.23;;;;;;;;;;5051047;28;20973;-73
2023/11/07 04:09:38;;;;;;;56.10;2.50;;;;;;;;;;5051645;28;20451;-71
2023/11/07 04:12:05;;;;;;;56.03;2.37;;;;;;;;;;5051065;28;20456;-71
2023/11/07 04:14:32;;;;;;;55.83;2.23;;;;;;;;;;5051646;28;20823;-71
2023/11/07 04:16:59;;;;;;;55.77;2.10;;;;;;;;;;5050934;28;20453;-72
2023/11/07 04:19:26;;;;;;;55.77;2.27;;;;;;;;;;5051313;28;20453;-72
2023/11/07 04:21:53;;;;;;;55.67;2.13;;;;;;;;;;5050869;28;20464;-73
2023/11/07 04:24:22;;;;;;;56.00;2.30;;;;;;;;;;5051095;28;20446;-71
2023/11/07 04:26:50;;;;;;;56.10;2.30;;;;;;;;;;5051014;28;20449;-71
2023/11/07 04:29:19;;;;;;;55.80;2.10;;;;;;;;;;5051070;28;20441;-71
2023/11/07 04:31:46;;;;;;;55.73;2.20;;;;;;;;;;5051064;28;20499;-73
2023/11/07 04:34:13;;;;;;;55.87;2.20;;;;;;;;;;5051225;28;20456;-71
2023/11/07 04:36:40;;;;;;;56.20;2.93;;;;;;;;;;5051081;28;20488;-72
2023/11/07 04:39:08;;;;;;;55.80;2.10;;;;;;;;;;5050985;28;20451;-72
2023/11/07 04:41:37;;;;;;;55.77;2.17;;;;;;;;;;5050679;28;20472;-72
2023/11/07 04:44:05;;;;;;;55.87;2.20;;;;;;;;;;5051166;28;20813;-71
2023/11/07 04:46:32;;;;;;;56.00;2.47;;;;;;;;;;5050752;28;20452;-72
2023/11/07 04:49:00;;;;;;;55.70;2.33;;;;;;;;;;5051034;28;20448;-70
2023/11/07 04:51:27;;;;;;;55.73;2.40;;;;;;;;;;5050955;28;20525;-71
2023/11/07 04:53:54;;;;;;;56.03;2.57;;;;;;;;;;5050975;28;20472;-71
2023/11/07 04:56:21;;;;;;;55.80;2.40;;;;;;;;;;5050380;28;20484;-71
2023/11/07 04:58:50;;;;;;;55.87;2.10;;;;;;;;;;5050902;28;20878;-72
2023/11/07 05:01:17;;;;;;;56.00;2.60;;;;;;;;;;5050639;28;20848;-71
2023/11/07 05:03:44;;;;;;;55.97;2.97;;;;;;;;;;5050965;28;20450;-73
2023/11/07 05:06:11;;;;;;;55.70;2.37;;;;;;;;;;5050390;28;20444;-71
2023/11/07 05:08:38;;;;;;;55.70;2.20;;;;;;;;;;5050908;28;20459;-72
2023/11/07 05:11:06;;;;;;;55.77;2.63;;;;;;;;;;5053715;28;20502;-72
2023/11/07 05:13:34;;;;;;;55.90;2.50;;;;;;;;;;5054759;28;20448;-71
2023/11/07 05:16:02;;;;;;;55.90;2.60;;;;;;;;;;5054320;28;20527;-72
2023/11/07 05:18:30;;;;;;;55.97;2.63;;;;;;;;;;5054711;28;20452;-72
2023/11/07 05:20:57;;;;;;;55.87;2.40;;;;;;;;;;5054507;28;20546;-72
2023/11/07 05:23:24;;;;;;;55.93;2.80;;;;;;;;;;5046207;28;20803;-71
2023/11/07 05:25:51;;;;;;;56.00;2.60;;;;;;;;;;5054564;28;20511;-73
2023/11/07 05:28:18;;;;;;;55.70;2.30;;;;;;;;;;5054147;28;20450;-71
2023/11/07 05:30:45;;;;;;;56.00;2.43;;;;;;;;;;5054199;28;21006;-72
2023/11/07 05:33:14;;;;;;;55.83;2.53;;;;;;;;;;5054062;28;20441;-71
2023/11/07 05:35:44;;;;;;;56.00;2.60;;;;;;;;;;5054072;28;20488;-72
2023/11/07 05:38:11;;;;;;;55.77;2.40;;;;;;;;;;5054024;28;20453;-72
2023/11/07 05:40:38;;;;;;;56.40;2.80;;;;;;;;;;5053911;28;20461;-72
2023/11/07 05:43:05;;;;;;;55.50;2.30;;;;;;;;;;5054359;28;20451;-71
2023/11/07 05:45:35;;;;;;;56.07;2.70;;;;;;;;;;5054017;28;20456;-71
2023/11/07 05:48:03;;;;;;;56.07;2.73;;;;;;;;;;5053804;28;20459;-71
2023/11/07 05:50:31;;;;;;;55.90;2.67;;;;;;;;;;5053745;28;20480;-72
2023/11/07 05:52:58;;;;;;;56.10;2.80;;;;;;;;;;5053865;28;20447;-72
2023/11/07 05:55:26;;;;;;;55.90;2.40;;;;;;;;;;5053915;28;20488;-71
2023/11/07 05:57:53;;;;;;;55.87;2.47;;;;;;;;;;5053768;28;20479;-71
2023/11/07 06:00:20;;;;;;;55.97;2.70;;;;;;;;;;5053369;28;20507;-72
2023/11/07 06:02:48;;;;;;;55.90;2.70;;;;;;;;;;5053522;28;20479;-73
2023/11/07 06:05:15;;;;;;;55.97;2.30;;;;;;;;;;5053448;28;20953;-72
2023/11/07 06:07:43;;;;;;;55.67;2.23;;;;;;;;;;5053546;28;20440;-73
2023/11/07 06:10:10;;;;;;;56.00;2.60;;;;;;;;;;5053614;28;20467;-72
2023/11/07 06:12:37;;;;;;;55.97;2.50;;;;;;;;;;5053360;28;20486;-72
2023/11/07 06:15:05;;;;;;;55.97;2.50;;;;;;;;;;5053248;28;20446;-72
2023/11/07 06:17:32;;;;;;;55.90;2.30;;;;;;;;;;5052989;28;20497;-72
2023/11/07 06:19:59;;;;;;;55.87;2.60;;;;;;;;;;5053246;28;20984;-72
2023/11/07 06:22:27;;;;;;;55.93;2.43;;;;;;;;;;5053247;28;20629;-72
2023/11/07 06:24:55;;;;;;;55.83;2.53;;;;;;;;;;5053415;28;20452;-72
2023/11/07 06:27:22;;;;;;;55.90;2.70;;;;;;;;;;5052936;28;20813;-73
2023/11/07 06:29:49;;;;;;;56.50;4.10;;;;;;;;;;5052857;28;20448;-72
2023/11/07 06:32:17;;;;;;;55.77;2.40;;;;;;;;;;5052710;28;20824;-72
2023/11/07 06:34:44;;;;;;;55.70;2.30;;;;;;;;;;5053148;28;20452;-72
2023/11/07 06:37:12;;;;;;;56.00;2.43;;;;;;;;;;5052689;28;20515;-71
2023/11/07 06:39:39;;;;;;;55.80;2.33;;;;;;;;;;5053071;28;20488;-72
2023/11/07 06:42:07;;;;;;;55.87;2.50;;;;;;;;;;5052667;28;20444;-72
2023/11/07 06:44:35;;;;;;;55.90;2.47;;;;;;;;;;5052760;28;20491;-72
2023/11/07 06:47:03;;;;;;;55.90;2.60;;;;;;;;;;5052680;28;20447;-72
2023/11/07 06:49:30;;;;;;;55.67;2.30;;;;;;;;;;5044962;28;20459;-72
2023/11/07 06:51:58;;;;;;;55.90;2.77;;;;;;;;;;5052425;28;20555;-72
2023/11/07 06:54:25;;;;;;;55.60;2.30;;;;;;;;;;5052563;28;20528;-74
2023/11/07 06:56:52;;;;;;;55.73;2.23;;;;;;;;;;5052175;28;21010;-72
2023/11/07 06:59:20;;;;;;;56.20;2.50;;;;;;;;;;5052173;28;20445;-72
2023/11/07 07:01:47;;;;;;;55.60;2.00;;;;;;;;;;5052188;28;20479;-72
2023/11/07 07:04:15;;;;;;;55.77;2.30;;;;;;;;;;5052609;28;20446;-72
2023/11/07 07:06:42;;;;;;;55.80;2.73;;;;;;;;;;5052178;28;20820;-72
2023/11/07 07:09:09;;;;;;;56.00;2.80;;;;;;;;;;5052338;28;20444;-71
2023/11/07 07:11:38;;;;;;;55.83;2.40;;;;;;;;;;5052182;28;20464;-72
2023/11/07 07:14:05;;;;;;;55.77;2.50;;;;;;;;;;5052462;28;20457;-72
2023/11/07 07:16:34;;;;;;;56.00;2.40;;;;;;;;;;5052055;28;20860;-72
2023/11/07 07:19:06;;;;;;;55.50;2.20;;;;;;;;;;5052238;28;20867;-73
2023/11/07 07:21:34;;;;;;;55.80;2.27;;;;;;;;;;5044198;28;20915;-72
2023/11/07 07:24:15;;;;;;;55.67;2.40;;;;;;;;;;5052368;28;20461;-72
2023/11/07 07:26:42;;;;;;;55.63;2.20;;;;;;;;;;5045326;28;20452;-73
2023/11/07 07:29:12;;;;;;;55.47;2.30;;;;;;;;;;5052010;28;20863;-72
2023/11/07 07:31:41;;;;;;;56.00;2.70;;;;;;;;;;5052045;28;20867;-73
2023/11/07 07:34:08;;;;;;;56.57;2.50;;;;;;;;;;5051185;28;20899;-72
2023/11/07 07:36:43;;;;;;;55.97;2.40;;;;;;;;;;5051527;28;20484;-72
2023/11/07 07:39:18;;;;;;;55.70;2.60;;;;;;;;;;5051626;28;20525;-73
2023/11/07 07:41:46;;;;;;;55.17;2.10;;;;;;;;;;5051481;28;20479;-73
2023/11/07 07:44:13;;;;;;;55.90;2.40;;;;;;;;;;5051828;28;20824;-70
2023/11/07 07:46:44;;;;;;;55.60;2.37;;;;;;;;;;5051348;28;20926;-71
2023/11/07 07:49:11;;;;;;;55.47;2.00;;;;;;;;;;5051527;28;20472;-71
2023/11/07 07:51:39;;;;;;;55.90;2.50;;;;;;;;;;5051539;28;20472;-72
2023/11/07 07:54:08;;;;;;;55.70;2.23;;;;;;;;;;5051701;28;20444;-72
2023/11/07 07:56:35;;;;;;;55.67;2.07;;;;;;;;;;5051178;28;20483;-71
2023/11/07 07:59:05;;;;;;;55.27;2.10;;;;;;;;;;5051500;28;20456;-72
2023/11/07 08:01:33;;;;;;;55.90;2.37;;;;;;;;;;5051112;28;20492;-72
2023/11/07 08:04:01;;;;;;;55.57;1.83;;;;;;;;;;5051247;28;20451;-72
2023/11/07 08:06:30;;;;;;;55.63;2.10;;;;;;;;;;5051118;28;20900;-70
2023/11/07 08:08:59;;;;;;;55.90;2.00;;;;;;;;;;5051712;28;20502;-71
2023/11/07 08:11:26;;;;;;;55.57;1.87;;;;;;;;;;5051341;28;20465;-71
2023/11/07 08:13:53;;;;;;;55.37;2.00;;;;;;;;;;5051053;28;20470;-71
2023/11/07 08:16:21;;;;;;;55.47;1.80;;;;;;;;;;5050528;28;20486;-72
2023/11/07 08:18:48;;;;;;;55.90;2.10;;;;;;;;;;5051103;28;20460;-71
2023/11/07 08:21:16;;;;;;;55.80;2.50;;;;;;;;;;5050682;28;20480;-72
2023/11/07 08:23:43;;;;;;;56.97;2.10;;;;;;;;;;5051072;28;20470;-71
2023/11/07 08:26:11;;;;;;;55.90;1.80;;;;;;;;;;5050512;28;20452;-71
2023/11/07 08:28:38;;;;;;;55.57;1.97;;;;;;;;;;5050980;28;20450;-70
2023/11/07 08:31:06;;;;;;;55.43;2.00;;;;;;;;;;5050775;28;20478;-71
2023/11/07 08:33:33;;;;;;;55.07;1.90;;;;;;;;;;5042618;28;20518;-71
2023/11/07 08:36:00;;;;;;;55.37;2.07;;;;;;;;;;5050360;28;20450;-71
2023/11/07 08:38:29;;;;;;;55.47;1.90;;;;;;;;;;5050793;28;20451;-71
2023/11/07 08:40:59;;;;;;;55.90;2.27;;;;;;;;;;5050818;28;20476;-71
2023/11/07 08:43:26;;;;;;;55.80;1.97;;;;;;;;;;5050558;28;20855;-71
2023/11/07 08:45:53;;;;;;;55.47;1.77;;;;;;;;;;5049711;28;20487;-71
2023/11/07 08:48:20;;;;;;;55.07;1.93;;;;;;;;;;5050681;28;20849;-71
2023/11/07 08:50:48;;;;;;;55.77;1.87;;;;;;;;;;5050626;28;20469;-71
2023/11/07 08:53:18;;;;;;;55.27;1.60;;;;;;;;;;5050539;28;20458;-71
2023/11/07 08:55:49;;;;;;;55.50;1.77;;;;;;;;;;5050367;28;20461;-72
2023/11/07 08:58:16;;;;;;;55.37;1.90;;;;;;;;;;5050395;28;20515;-71
2023/11/07 09:00:44;;;;;;;55.57;2.00;;;;;;;;;;5050310;28;20476;-71
2023/11/07 09:03:11;;;;;;;55.67;1.97;;;;;;;;;;5050377;28;20455;-71
2023/11/07 09:05:40;;;;;;;55.90;2.00;;;;;;;;;;5050406;28;20466;-71
2023/11/07 09:08:08;;;;;;;56.10;2.00;;;;;;;;;;5050370;28;20469;-71
2023/11/07 09:10:35;;;;;;;55.87;2.10;;;;;;;;;;5050443;28;20476;-71
2023/11/07 09:13:03;;;;;;;55.77;1.90;;;;;;;;;;5050835;28;20455;-69
2023/11/07 09:15:31;;;;;;;55.90;1.80;;;;;;;;;;5050316;28;20453;-69
2023/11/07 09:17:58;;;;;;;56.10;2.23;;;;;;;;;;5050203;28;20500;-70
2023/11/07 09:20:25;;;;;;;55.50;2.10;;;;;;;;;;5050410;28;20472;-71
2023/11/07 09:22:53;;;;;;;55.17;2.10;;;;;;;;;;5050351;28;20456;-69
2023/11/07 09:25:21;;;;;;;56.63;2.50;;;;;;;;;;5050397;28;20446;-70
2023/11/07 09:27:49;;;;;;;55.47;1.90;;;;;;;;;;5050302;28;20670;-70
2023/11/07 09:30:18;;;;;;;55.87;1.87;;;;;;;;;;5050290;28;20468;-70
2023/11/07 09:32:48;;;;;;;55.57;1.90;;;;;;;;;;5050299;28;20453;-70
2023/11/07 09:35:15;;;;;;;55.83;1.77;;;;;;;;;;5050343;28;20485;-70
2023/11/07 09:37:42;;;;;;;55.60;1.90;;;;;;;;;;5049826;28;20484;-72
2023/11/07 09:40:10;;;;;;;56.03;2.30;;;;;;;;;;5050358;28;20466;-70
2023/11/07 09:42:37;;;;;;;55.63;1.63;;;;;;;;;;5050143;28;20441;-70
2023/11/07 09:45:10;;;;;;;55.57;1.70;;;;;;;;;;5050192;28;20539;-71
2023/11/07 09:47:39;;;;;;;55.27;1.83;;;;;;;;;;5049968;28;20949;-70
2023/11/07 09:50:07;;;;;;;55.97;1.80;;;;;;;;;;5049914;28;20527;-70
2023/11/07 09:52:35;;;;;;;55.53;1.90;;;;;;;;;;5050024;28;20454;-71
2023/11/07 09:55:06;;;;;;;55.77;2.13;;;;;;;;;;5050377;28;20597;-70
2023/11/07 09:57:35;;;;;;;55.47;2.10;;;;;;;;;;5053278;28;20490;-70
2023/11/07 10:00:03;;;;;;;55.70;2.30;;;;;;;;;;5053353;28;20615;-70
2023/11/07 10:02:33;;;;;;;55.27;2.00;;;;;;;;;;5053384;28;20450;-72
2023/11/07 10:05:02;;;;;;;55.77;1.77;;;;;;;;;;5053417;28;20973;-70
2023/11/07 10:07:29;;;;;;;54.90;1.87;;;;;;;;;;5053262;28;20446;-71
2023/11/07 10:09:57;;;;;;;55.47;1.63;;;;;;;;;;5053383;28;20464;-71
2023/11/07 10:12:24;;;;;;;55.33;1.83;;;;;;;;;;5053182;28;20450;-70
2023/11/07 10:14:51;;;;;;;55.57;1.70;;;;;;;;;;5053160;28;20943;-71
2023/11/07 10:17:20;;;;;;;55.30;1.80;;;;;;;;;;5052841;28;20498;-70
2023/11/07 10:19:47;;;;;;;55.70;1.93;;;;;;;;;;5053286;28;20450;-71
2023/11/07 10:22:15;;;;;;;55.80;1.60;;;;;;;;;;5053107;28;20842;-71
2023/11/07 10:24:46;;;;;;;55.67;1.90;;;;;;;;;;5053082;28;20455;-71
2023/11/07 10:27:15;;;;;;;55.27;1.60;;;;;;;;;;5052907;28;20989;-73
2023/11/07 10:29:52;;;;;;;55.17;1.83;;;;;;;;;;5052893;28;20458;-71
2023/11/07 10:32:19;;;;;;;55.57;1.90;;;;;;;;;;5052835;28;20682;-70
2023/11/07 10:35:00;;;;;;;55.83;1.83;;;;;;;;;;5052747;28;20520;-70
2023/11/07 10:37:36;;;;;;;55.47;1.80;;;;;;;;;;5052687;28;20494;-71
2023/11/07 10:40:03;;;;;;;56.30;2.00;;;;;;;;;;5052668;28;20819;-70
2023/11/07 10:42:33;;;;;;;56.10;1.90;;;;;;;;;;5052801;28;20498;-70
2023/11/07 10:45:01;;;;;;;56.30;2.00;;;;;;;;;;5052594;28;20448;-70
2023/11/07 10:47:37;;;;;;;56.57;2.20;;;;;;;;;;5052301;28;20480;-70
2023/11/07 10:50:05;;;;;;;55.33;1.90;;;;;;;;;;5052569;28;20479;-70
2023/11/07 10:52:32;;;;;;;55.90;1.80;;;;;;;;;;5052296;28;20456;-70
2023/11/07 10:55:03;;;;;;;55.80;1.90;;;;;;;;;;5052594;28;20448;-69
2023/11/07 10:57:34;;;;;;;54.70;1.70;;;;;;;;;;5052527;28;20583;-69
2023/11/07 11:00:10;;;;;;;55.27;1.77;;;;;;;;;;5052456;28;20891;-70
2023/11/07 11:02:39;;;;;;;55.47;2.00;;;;;;;;;;5052524;28;20450;-70
2023/11/07 11:05:11;;;;;;;55.07;1.70;;;;;;;;;;5052252;28;20456;-70
2023/11/07 11:07:39;;;;;;;55.57;2.00;;;;;;;;;;5051242;28;20452;-71
2023/11/07 11:10:10;;;;;;;57.07;2.50;;;;;;;;;;5052470;28;20559;-70
2023/11/07 11:12:40;;;;;;;55.87;2.00;;;;;;;;;;5052078;28;20484;-70
2023/11/07 11:15:09;;;;;;;55.90;1.80;;;;;;;;;;5052111;28;20516;-70
2023/11/07 11:17:40;;;;;;;55.47;1.83;;;;;;;;;;5051571;28;21047;-70
2023/11/07 11:20:16;;;;;;;55.97;1.93;;;;;;;;;;5052277;28;20475;-70
2023/11/07 11:22:48;;;;;;;55.67;2.00;;;;;;;;;;5052033;28;20453;-69
2023/11/07 11:25:23;;;;;;;55.57;2.00;;;;;;;;;;5052206;28;20453;-69
2023/11/07 11:27:53;;;;;;;55.07;2.00;;;;;;;;;;5051921;28;20805;-70
2023/11/07 11:30:27;;;;;;;55.47;2.10;;;;;;;;;;5051700;28;20472;-71
2023/11/07 11:33:06;;;;;;;55.67;2.10;;;;;;;;;;5051822;28;20936;-71
2023/11/07 11:35:35;;;;;;;55.67;2.03;;;;;;;;;;5052018;28;20798;-71
2023/11/07 11:38:09;;;;;;;55.90;2.00;;;;;;;;;;5051709;28;20480;-70
2023/11/07 11:41:00;;;;;;;55.70;1.90;;;;;;;;;;5051862;28;21079;-71
2023/11/07 11:43:31;;;;;;;55.17;2.07;;;;;;;;;;5041248;28;20517;-71
2023/11/07 11:45:59;;;;;;;55.87;1.90;;;;;;;;;;5051619;28;20480;-71
2023/11/07 11:48:44;;;;;;;55.97;2.10;;;;;;;;;;5051558;28;20524;-71
2023/11/07 11:51:31;;;;;;;56.00;2.00;;;;;;;;;;5051373;28;20852;-71
2023/11/07 11:53:58;;;;;;;55.67;1.90;;;;;;;;;;5051592;28;20937;-71
2023/11/07 11:56:25;;;;;;;55.80;2.20;;;;;;;;;;5051490;28;20444;-69
2023/11/07 11:59:04;;;;;;;55.97;2.00;;;;;;;;;;5051886;28;20489;-70
2023/11/07 12:01:33;;;;;;;55.57;1.83;;;;;;;;;;5051069;28;20837;-71
2023/11/07 12:04:00;;;;;;;54.90;1.90;;;;;;;;;;5051593;28;20457;-70
2023/11/07 12:06:27;;;;;;;56.00;1.87;;;;;;;;;;5051070;28;20453;-70
2023/11/07 12:08:55;;;;;;;55.77;1.87;;;;;;;;;;5051336;28;20532;-71
2023/11/07 12:11:23;;;;;;;55.70;1.70;;;;;;;;;;5051039;28;20470;-70
2023/11/07 12:13:51;;;;;;;55.47;1.73;;;;;;;;;;5051237;28;20460;-71
2023/11/07 12:16:20;;;;;;;55.90;2.03;;;;;;;;;;5050923;28;20476;-71
2023/11/07 12:18:49;;;;;;;55.17;1.73;;;;;;;;;;5051331;28;20480;-71
2023/11/07 12:21:26;;;;;;;55.23;1.80;;;;;;;;;;5050981;28;21070;-71
2023/11/07 12:23:55;;;;;;;55.70;2.00;;;;;;;;;;5044171;28;20458;-71
2023/11/07 12:26:22;;;;;;;55.47;1.80;;;;;;;;;;5049966;28;20462;-71
2023/11/07 12:28:50;;;;;;;55.87;2.10;;;;;;;;;;5051130;28;20446;-72
2023/11/07 12:31:17;;;;;;;55.67;1.90;;;;;;;;;;5050835;28;20472;-71
2023/11/07 12:33:46;;;;;;;55.70;1.80;;;;;;;;;;5050694;28;20454;-72
2023/11/07 12:36:14;;;;;;;55.37;1.90;;;;;;;;;;5050736;28;20847;-71
2023/11/07 12:38:41;;;;;;;55.63;2.03;;;;;;;;;;5050647;28;20520;-71
2023/11/07 12:41:10;;;;;;;55.67;1.97;;;;;;;;;;5050823;28;20468;-72
2023/11/07 12:43:38;;;;;;;56.00;2.10;;;;;;;;;;5050884;28;20467;-72
2023/11/07 12:46:09;;;;;;;55.37;2.20;;;;;;;;;;5050445;28;20936;-71
2023/11/07 12:48:37;;;;;;;55.77;2.00;;;;;;;;;;5050720;28;20804;-70
2023/11/07 12:51:08;;;;;;;55.73;1.80;;;;;;;;;;5050603;28;20548;-72
2023/11/07 12:53:35;;;;;;;55.90;1.90;;;;;;;;;;5050464;28;20940;-71
2023/11/07 12:56:03;;;;;;;55.30;1.77;;;;;;;;;;5050627;28;20465;-71
2023/11/07 12:58:31;;;;;;;55.33;1.97;;;;;;;;;;5050536;28;20945;-73
2023/11/07 13:00:59;;;;;;;55.73;1.90;;;;;;;;;;5050531;28;20476;-73
2023/11/07 13:03:31;;;;;;;55.33;1.70;;;;;;;;;;5050563;28;20624;-71
2023/11/07 13:05:59;;;;;;;55.77;1.83;;;;;;;;;;5050382;28;20806;-71
2023/11/07 13:08:28;;;;;;;55.97;2.10;;;;;;;;;;5050699;28;20450;-70
2023/11/07 13:11:07;;;;;;;55.80;2.10;;;;;;;;;;5050729;28;20838;-72
2023/11/07 13:13:34;;;;;;;56.00;2.10;;;;;;;;;;5050241;28;20893;-70
2023/11/07 13:16:01;;;;;;;55.80;2.00;;;;;;;;;;5050402;28;20456;-71
2023/11/07 13:18:28;;;;;;;55.70;2.00;;;;;;;;;;5050317;28;21002;-73
2023/11/07 13:20:55;;;;;;;55.80;1.93;;;;;;;;;;5050499;28;20476;-73
2023/11/07 13:23:22;;;;;;;55.47;1.80;;;;;;;;;;5050073;28;20961;-74
2023/11/07 13:25:51;;;;;;;55.70;1.80;;;;;;;;;;5050308;28;20558;-72
2023/11/07 13:28:20;;;;;;;55.80;1.90;;;;;;;;;;5050258;28;20448;-72
2023/11/07 13:30:48;;;;;;;55.90;2.00;;;;;;;;;;5051613;28;20971;-72
2023/11/07 13:33:15;;;;;;;55.87;1.73;;;;;;;;;;5054030;28;20456;-73
2023/11/07 13:35:47;;;;;;;55.97;1.83;;;;;;;;;;5053855;28;21184;-72
2023/11/07 13:38:14;;;;;;;55.47;1.90;;;;;;;;;;5054241;28;20844;-72
2023/11/07 13:40:41;;;;;;;55.77;1.90;;;;;;;;;;5053941;28;20471;-72
2023/11/07 13:43:10;;;;;;;55.63;1.90;;;;;;;;;;5053998;28;20446;-73
2023/11/07 13:45:38;;;;;;;55.33;1.77;;;;;;;;;;5053707;28;20487;-72
2023/11/07 13:48:06;;;;;;;55.47;1.80;;;;;;;;;;5054150;28;20456;-73
2023/11/07 13:50:33;;;;;;;55.67;1.70;;;;;;;;;;5053643;28;20468;-72
2023/11/07 13:53:00;;;;;;;55.57;2.13;;;;;;;;;;5053692;28;20489;-73
2023/11/07 13:55:28;;;;;;;55.43;1.80;;;;;;;;;;5054021;28;20446;-72
2023/11/07 13:57:55;;;;;;;54.80;1.73;;;;;;;;;;5053456;28;20846;-73
2023/11/07 14:00:24;;;;;;;55.87;2.20;;;;;;;;;;5053609;28;20850;-72
2023/11/07 14:02:52;;;;;;;55.00;1.80;;;;;;;;;;5053728;28;20450;-72
2023/11/07 14:05:21;;;;;;;55.17;1.90;;;;;;;;;;5053568;28;20975;-72
2023/11/07 14:07:48;;;;;;;55.70;2.10;;;;;;;;;;5053304;28;20446;-72
2023/11/07 14:10:17;;;;;;;55.47;1.80;;;;;;;;;;5053496;28;20565;-71
2023/11/07 14:12:45;;;;;;;55.87;1.63;;;;;;;;;;5053302;28;20453;-72
2023/11/07 14:15:14;;;;;;;55.90;1.83;;;;;;;;;;5053585;28;20452;-72
2023/11/07 14:17:43;;;;;;;55.57;2.07;;;;;;;;;;5053035;28;20541;-72
2023/11/07 14:20:13;;;;;;;56.07;2.87;;;;;;;;;;5053204;28;20473;-72
2023/11/07 14:22:41;;;;;;;55.70;2.00;;;;;;;;;;5053231;28;20459;-71
2023/11/07 14:25:11;;;;;;;55.77;2.00;;;;;;;;;;5053195;28;20448;-71
2023/11/07 14:27:38;;;;;;;55.70;2.10;;;;;;;;;;5053102;28;21019;-71
2023/11/07 14:30:08;;;;;;;55.70;2.03;;;;;;;;;;5053101;28;20468;-70
2023/11/07 14:32:35;;;;;;;56.00;2.10;;;;;;;;;;5053172;28;20458;-70
2023/11/07 14:35:08;;;;;;;55.43;1.83;;;;;;;;;;5053314;28;20444;-72
2023/11/07 14:37:35;;;;;;;55.70;1.80;;;;;;;;;;5052988;28;20463;-71